NGFU

Details ICAO NGFU (FUN)
Name Funafuti Atol Intl
Region Kiribati and Tuvalu
Timezone Unknown (UTC+0.0)
Plans Departing 13
Arriving 14
Stats Elevation 6 ft / 2 m (AMSL)
Location -8.524020° 179.196801°
Runways 1
Magnetic Variation 10.637° E
Sunrise 2017-12-10 17:39:28 UTC / 2017-12-10 17:39:28 Local
Sunset 2017-12-11 06:15:56 UTC / 2017-12-11 06:15:56 Local
Advertisement - Login to hide

Runways

ID Width Length Bearing (true) Bearing (mag) Surface Threshold Offset Overrun Length
03 98 ft / 30 m 5,055 ft / 1,541 m 42.90° 32.26° Asphalt 0 ft / 0 m 0 ft / 0 m
21 98 ft / 30 m 5,055 ft / 1,541 m 222.90° 212.26° Asphalt 0 ft / 0 m 0 ft / 0 m

Map

Weather


0- 5 10 15 20 25 30 35+ Temperature / ° C

Clouds and Precipitation
Forecast for 2017-12-11 06:00 UTC. Updated an hour ago

Ground ~20,000 ft ~40,000 ft Winds

METAR

NGFU 110200Z 32007KT 9999 FEW020 32/24 Q1005

TAF

TAF NGFU 101721Z 1018/1118 34010KT 9999 FEW018 SCT050 PROB30 TEMPO 1112/1118 5000 TSRA FEW018CB
Warning: Do not use this data for real-world aviation or navigation. No guarantee of current accuracy is given.